sensor_id;sensor_type;location;lat;lon;timestamp;P1;durP1;ratioP1;P2;durP2;ratioP2
15500;SDS011;7852;52.228;5.990;2023-08-17T00:04:06;9.9;;;9.3;;
15500;SDS011;7852;52.228;5.990;2023-08-17T00:04:06;9.9;;;9.1;;
15500;SDS011;7852;52.228;5.990;2023-08-17T00:04:06;10.3;;;9.5;;
15500;SDS011;7852;52.228;5.990;2023-08-17T00:04:49;10.2;;;9.4;;
15500;SDS011;7852;52.228;5.990;2023-08-17T00:05:49;9.4;;;8.7;;
15500;SDS011;7852;52.228;5.990;2023-08-17T00:06:49;9.6;;;8.7;;
15500;SDS011;7852;52.228;5.990;2023-08-17T00:07:49;10.2;;;9.4;;
15500;SDS011;7852;52.228;5.990;2023-08-17T00:08:49;9.5;;;8.8;;
15500;SDS011;7852;52.228;5.990;2023-08-17T00:09:50;9.7;;;8.8;;
15500;SDS011;7852;52.228;5.990;2023-08-17T00:10:49;9.5;;;8.7;;
15500;SDS011;7852;52.228;5.990;2023-08-17T00:11:49;9.6;;;9;;
15500;SDS011;7852;52.228;5.990;2023-08-17T00:12:49;10.1;;;9.3;;
15500;SDS011;7852;52.228;5.990;2023-08-17T00:13:50;10.9;;;10;;
15500;SDS011;7852;52.228;5.990;2023-08-17T00:14:50;9.9;;;9.2;;
15500;SDS011;7852;52.228;5.990;2023-08-17T00:15:49;10.6;;;9.8;;
15500;SDS011;7852;52.228;5.990;2023-08-17T00:16:49;10.9;;;10;;
15500;SDS011;7852;52.228;5.990;2023-08-17T00:17:49;10.3;;;9.5;;
15500;SDS011;7852;52.228;5.990;2023-08-17T00:18:49;9.6;;;8.9;;
15500;SDS011;7852;52.228;5.990;2023-08-17T00:19:49;10.8;;;9.9;;
15500;SDS011;7852;52.228;5.990;2023-08-17T00:20:49;11.3;;;10.3;;
15500;SDS011;7852;52.228;5.990;2023-08-17T00:21:50;10.5;;;9.6;;
15500;SDS011;7852;52.228;5.990;2023-08-17T00:22:50;9.9;;;9.2;;
15500;SDS011;7852;52.228;5.990;2023-08-17T00:23:50;10.3;;;9.3;;
15500;SDS011;7852;52.228;5.990;2023-08-17T00:24:49;9.6;;;8.8;;
15500;SDS011;7852;52.228;5.990;2023-08-17T00:25:50;9.6;;;8.7;;
15500;SDS011;7852;52.228;5.990;2023-08-17T00:26:49;9.6;;;8.9;;
15500;SDS011;7852;52.228;5.990;2023-08-17T00:27:50;10.5;;;9.5;;
15500;SDS011;7852;52.228;5.990;2023-08-17T00:28:49;10.5;;;9.6;;
15500;SDS011;7852;52.228;5.990;2023-08-17T00:29:50;10.8;;;9.9;;
15500;SDS011;7852;52.228;5.990;2023-08-17T00:30:50;10.8;;;9.9;;
15500;SDS011;7852;52.228;5.990;2023-08-17T00:31:50;10.2;;;9.3;;
15500;SDS011;7852;52.228;5.990;2023-08-17T00:32:49;9.6;;;9;;
15500;SDS011;7852;52.228;5.990;2023-08-17T00:33:49;9.8;;;8.9;;
15500;SDS011;7852;52.228;5.990;2023-08-17T00:34:49;9.2;;;8.4;;
15500;SDS011;7852;52.228;5.990;2023-08-17T00:35:49;9.3;;;8.6;;
15500;SDS011;7852;52.228;5.990;2023-08-17T00:36:50;9.5;;;8.9;;
15500;SDS011;7852;52.228;5.990;2023-08-17T00:37:50;9.4;;;8.6;;
15500;SDS011;7852;52.228;5.990;2023-08-17T00:38:49;10.6;;;9.7;;
15500;SDS011;7852;52.228;5.990;2023-08-17T00:39:50;10.8;;;10.1;;
15500;SDS011;7852;52.228;5.990;2023-08-17T00:40:49;10.6;;;9.8;;
15500;SDS011;7852;52.228;5.990;2023-08-17T00:41:49;10.6;;;9.9;;
15500;SDS011;7852;52.228;5.990;2023-08-17T00:42:49;10.9;;;10.1;;
15500;SDS011;7852;52.228;5.990;2023-08-17T00:43:49;10.9;;;10.2;;
15500;SDS011;7852;52.228;5.990;2023-08-17T00:44:49;11.8;;;10.9;;
15500;SDS011;7852;52.228;5.990;2023-08-17T00:45:50;12.1;;;11.2;;
15500;SDS011;7852;52.228;5.990;2023-08-17T00:46:49;15;;;14.2;;
15500;SDS011;7852;52.228;5.990;2023-08-17T00:47:50;17.1;;;16.3;;
15500;SDS011;7852;52.228;5.990;2023-08-17T00:48:50;16;;;14.9;;
15500;SDS011;7852;52.228;5.990;2023-08-17T00:49:50;16.7;;;15.8;;
15500;SDS011;7852;52.228;5.990;2023-08-17T00:50:50;17.4;;;16.4;;
15500;SDS011;7852;52.228;5.990;2023-08-17T00:51:49;14;;;12.9;;
15500;SDS011;7852;52.228;5.990;2023-08-17T00:52:50;14.1;;;13.3;;
15500;SDS011;7852;52.228;5.990;2023-08-17T00:53:50;14.6;;;13.5;;
15500;SDS011;7852;52.228;5.990;2023-08-17T00:54:49;16.8;;;15.9;;
15500;SDS011;7852;52.228;5.990;2023-08-17T00:55:50;14.6;;;13.9;;
15500;SDS011;7852;52.228;5.990;2023-08-17T00:56:50;16.7;;;15.6;;
15500;SDS011;7852;52.228;5.990;2023-08-17T00:57:50;18.3;;;17.4;;
15500;SDS011;7852;52.228;5.990;2023-08-17T00:58:49;17.6;;;16.5;;
15500;SDS011;7852;52.228;5.990;2023-08-17T00:59:50;15.7;;;14.9;;
15500;SDS011;7852;52.228;5.990;2023-08-17T01:00:50;16.4;;;15.6;;
15500;SDS011;7852;52.228;5.990;2023-08-17T01:01:50;15.5;;;14.8;;
15500;SDS011;7852;52.228;5.990;2023-08-17T01:02:50;19;;;18.1;;
15500;SDS011;7852;52.228;5.990;2023-08-17T01:03:50;20;;;19;;
15500;SDS011;7852;52.228;5.990;2023-08-17T01:04:50;17.5;;;16.6;;
15500;SDS011;7852;52.228;5.990;2023-08-17T01:05:50;17.4;;;16.4;;
15500;SDS011;7852;52.228;5.990;2023-08-17T01:06:50;19.1;;;18.1;;
15500;SDS011;7852;52.228;5.990;2023-08-17T01:07:50;17;;;16.1;;
15500;SDS011;7852;52.228;5.990;2023-08-17T01:08:49;19;;;18.1;;
15500;SDS011;7852;52.228;5.990;2023-08-17T01:09:50;17.7;;;16.9;;
15500;SDS011;7852;52.228;5.990;2023-08-17T01:10:51;19.6;;;18.4;;
15500;SDS011;7852;52.228;5.990;2023-08-17T01:11:53;19.4;;;18.3;;
15500;SDS011;7852;52.228;5.990;2023-08-17T01:12:52;21;;;20;;
15500;SDS011;7852;52.228;5.990;2023-08-17T01:14:04;20.7;;;19.7;;
15500;SDS011;7852;52.228;5.990;2023-08-17T01:14:50;20.4;;;19.4;;
15500;SDS011;7852;52.228;5.990;2023-08-17T01:15:50;23.2;;;22.1;;
15500;SDS011;7852;52.228;5.990;2023-08-17T01:16:50;23.5;;;22.5;;
15500;SDS011;7852;52.228;5.990;2023-08-17T01:17:52;22.2;;;21.2;;
15500;SDS011;7852;52.228;5.990;2023-08-17T01:18:50;25.8;;;24.8;;
15500;SDS011;7852;52.228;5.990;2023-08-17T01:19:50;18.9;;;17.9;;
15500;SDS011;7852;52.228;5.990;2023-08-17T01:20:50;20.4;;;19.4;;
15500;SDS011;7852;52.228;5.990;2023-08-17T01:21:50;23;;;21.9;;
15500;SDS011;7852;52.228;5.990;2023-08-17T01:22:50;22.2;;;21.3;;
15500;SDS011;7852;52.228;5.990;2023-08-17T01:23:50;24.7;;;23.4;;
15500;SDS011;7852;52.228;5.990;2023-08-17T01:24:50;22.5;;;21.5;;
15500;SDS011;7852;52.228;5.990;2023-08-17T01:25:50;24.1;;;23;;
15500;SDS011;7852;52.228;5.990;2023-08-17T01:26:50;25.4;;;24;;
15500;SDS011;7852;52.228;5.990;2023-08-17T01:27:50;23.2;;;22.1;;
15500;SDS011;7852;52.228;5.990;2023-08-17T01:28:50;24.6;;;23.3;;
15500;SDS011;7852;52.228;5.990;2023-08-17T01:29:50;26;;;24.4;;
15500;SDS011;7852;52.228;5.990;2023-08-17T01:30:52;25.8;;;24.6;;
15500;SDS011;7852;52.228;5.990;2023-08-17T01:31:51;25.9;;;24.7;;
15500;SDS011;7852;52.228;5.990;2023-08-17T01:32:50;27.9;;;26.5;;
15500;SDS011;7852;52.228;5.990;2023-08-17T01:33:50;29.4;;;28.2;;
15500;SDS011;7852;52.228;5.990;2023-08-17T01:34:57;27.6;;;26.2;;
15500;SDS011;7852;52.228;5.990;2023-08-17T01:35:51;26.5;;;25.3;;
15500;SDS011;7852;52.228;5.990;2023-08-17T01:36:50;27.3;;;26;;
15500;SDS011;7852;52.228;5.990;2023-08-17T01:37:50;28.4;;;27.2;;
15500;SDS011;7852;52.228;5.990;2023-08-17T01:38:50;29.5;;;28.1;;
15500;SDS011;7852;52.228;5.990;2023-08-17T01:39:50;26.8;;;25.5;;
15500;SDS011;7852;52.228;5.990;2023-08-17T01:40:50;27.1;;;25.9;;
15500;SDS011;7852;52.228;5.990;2023-08-17T01:41:50;25.9;;;24.8;;
15500;SDS011;7852;52.228;5.990;2023-08-17T01:42:50;24.3;;;23.1;;
15500;SDS011;7852;52.228;5.990;2023-08-17T01:43:50;25.7;;;24.5;;
15500;SDS011;7852;52.228;5.990;2023-08-17T01:44:50;27.1;;;25.9;;
15500;SDS011;7852;52.228;5.990;2023-08-17T01:45:50;29.2;;;27.7;;
15500;SDS011;7852;52.228;5.990;2023-08-17T01:46:50;28;;;26.6;;
15500;SDS011;7852;52.228;5.990;2023-08-17T01:47:50;30.9;;;29.4;;
15500;SDS011;7852;52.228;5.990;2023-08-17T01:48:50;30.7;;;29.2;;
15500;SDS011;7852;52.228;5.990;2023-08-17T01:49:50;31.2;;;29.6;;
15500;SDS011;7852;52.228;5.990;2023-08-17T01:50:50;31.6;;;30.2;;
15500;SDS011;7852;52.228;5.990;2023-08-17T01:51:50;28.6;;;27.3;;
15500;SDS011;7852;52.228;5.990;2023-08-17T01:52:50;27;;;25.9;;
15500;SDS011;7852;52.228;5.990;2023-08-17T01:53:50;31.3;;;29.8;;
15500;SDS011;7852;52.228;5.990;2023-08-17T01:54:49;31.9;;;30.2;;
15500;SDS011;7852;52.228;5.990;2023-08-17T01:55:50;32.9;;;31.5;;
15500;SDS011;7852;52.228;5.990;2023-08-17T01:56:50;32.2;;;30.7;;
15500;SDS011;7852;52.228;5.990;2023-08-17T01:57:50;32.6;;;31.2;;
15500;SDS011;7852;52.228;5.990;2023-08-17T01:58:50;37.4;;;35.9;;
15500;SDS011;7852;52.228;5.990;2023-08-17T01:59:50;37.6;;;36;;
15500;SDS011;7852;52.228;5.990;2023-08-17T02:00:50;37.5;;;35.8;;
15500;SDS011;7852;52.228;5.990;2023-08-17T02:01:50;39;;;37;;
15500;SDS011;7852;52.228;5.990;2023-08-17T02:02:50;33.1;;;31.5;;
15500;SDS011;7852;52.228;5.990;2023-08-17T02:03:50;34.1;;;32.7;;
15500;SDS011;7852;52.228;5.990;2023-08-17T02:04:50;32.4;;;31;;
15500;SDS011;7852;52.228;5.990;2023-08-17T02:05:50;33.2;;;31.7;;
15500;SDS011;7852;52.228;5.990;2023-08-17T02:06:50;34.1;;;32.5;;
15500;SDS011;7852;52.228;5.990;2023-08-17T02:07:50;32.2;;;30.8;;
15500;SDS011;7852;52.228;5.990;2023-08-17T02:08:50;35.3;;;33.7;;
15500;SDS011;7852;52.228;5.990;2023-08-17T02:09:50;36.5;;;34.9;;
15500;SDS011;7852;52.228;5.990;2023-08-17T02:10:50;36.2;;;34.5;;
15500;SDS011;7852;52.228;5.990;2023-08-17T02:11:50;35.7;;;34.2;;
15500;SDS011;7852;52.228;5.990;2023-08-17T02:12:50;36.8;;;35;;
15500;SDS011;7852;52.228;5.990;2023-08-17T02:13:50;29.5;;;28.1;;
15500;SDS011;7852;52.228;5.990;2023-08-17T02:14:50;28.4;;;27.2;;
15500;SDS011;7852;52.228;5.990;2023-08-17T02:15:50;28.7;;;27.2;;
15500;SDS011;7852;52.228;5.990;2023-08-17T02:16:50;30.1;;;28.6;;
15500;SDS011;7852;52.228;5.990;2023-08-17T02:17:50;30;;;28.7;;
15500;SDS011;7852;52.228;5.990;2023-08-17T02:18:50;29.2;;;27.9;;
15500;SDS011;7852;52.228;5.990;2023-08-17T02:19:50;29.6;;;28.2;;
15500;SDS011;7852;52.228;5.990;2023-08-17T02:20:50;29.1;;;27.6;;
15500;SDS011;7852;52.228;5.990;2023-08-17T02:21:50;30.5;;;29.1;;
15500;SDS011;7852;52.228;5.990;2023-08-17T02:22:50;28.5;;;27.2;;
15500;SDS011;7852;52.228;5.990;2023-08-17T02:23:50;27.8;;;26.3;;
15500;SDS011;7852;52.228;5.990;2023-08-17T02:24:50;29.5;;;28.1;;
15500;SDS011;7852;52.228;5.990;2023-08-17T02:25:50;31;;;29.6;;
15500;SDS011;7852;52.228;5.990;2023-08-17T02:26:50;32.6;;;31;;
15500;SDS011;7852;52.228;5.990;2023-08-17T02:27:50;27.9;;;26.8;;
15500;SDS011;7852;52.228;5.990;2023-08-17T02:28:50;29.3;;;28;;
15500;SDS011;7852;52.228;5.990;2023-08-17T02:29:50;31.4;;;30;;
15500;SDS011;7852;52.228;5.990;2023-08-17T02:30:54;34.3;;;32.9;;
15500;SDS011;7852;52.228;5.990;2023-08-17T02:31:50;35.4;;;33.8;;
15500;SDS011;7852;52.228;5.990;2023-08-17T02:32:50;32.9;;;31.4;;
15500;SDS011;7852;52.228;5.990;2023-08-17T02:33:50;32.8;;;31.2;;
15500;SDS011;7852;52.228;5.990;2023-08-17T02:34:50;33.7;;;32.3;;
15500;SDS011;7852;52.228;5.990;2023-08-17T02:36:52;35.4;;;33.9;;
15500;SDS011;7852;52.228;5.990;2023-08-17T02:37:50;37.8;;;36.1;;
15500;SDS011;7852;52.228;5.990;2023-08-17T02:38:50;34.4;;;32.9;;
15500;SDS011;7852;52.228;5.990;2023-08-17T02:39:50;31.2;;;30;;
15500;SDS011;7852;52.228;5.990;2023-08-17T02:40:50;34.5;;;33.2;;
15500;SDS011;7852;52.228;5.990;2023-08-17T02:41:50;35;;;33.4;;
15500;SDS011;7852;52.228;5.990;2023-08-17T02:42:50;38;;;36.3;;
15500;SDS011;7852;52.228;5.990;2023-08-17T02:43:50;40.1;;;38.5;;
15500;SDS011;7852;52.228;5.990;2023-08-17T02:44:50;39.1;;;37.2;;
15500;SDS011;7852;52.228;5.990;2023-08-17T02:45:50;38.7;;;36.9;;
15500;SDS011;7852;52.228;5.990;2023-08-17T02:46:50;42.7;;;40.9;;
15500;SDS011;7852;52.228;5.990;2023-08-17T02:47:50;43.8;;;41.8;;
15500;SDS011;7852;52.228;5.990;2023-08-17T02:48:50;41.1;;;39.4;;
15500;SDS011;7852;52.228;5.990;2023-08-17T02:49:50;44.6;;;42.9;;
15500;SDS011;7852;52.228;5.990;2023-08-17T02:50:50;47.3;;;45.5;;
15500;SDS011;7852;52.228;5.990;2023-08-17T02:51:50;50.1;;;48.1;;
15500;SDS011;7852;52.228;5.990;2023-08-17T02:52:50;50.1;;;48.1;;
15500;SDS011;7852;52.228;5.990;2023-08-17T02:53:50;51.1;;;49;;
15500;SDS011;7852;52.228;5.990;2023-08-17T02:54:50;52.9;;;50.7;;
15500;SDS011;7852;52.228;5.990;2023-08-17T02:55:50;49.3;;;47.3;;
15500;SDS011;7852;52.228;5.990;2023-08-17T02:56:50;56.3;;;54.1;;
15500;SDS011;7852;52.228;5.990;2023-08-17T02:57:50;55.5;;;53.2;;
15500;SDS011;7852;52.228;5.990;2023-08-17T02:58:50;54.8;;;52.8;;
15500;SDS011;7852;52.228;5.990;2023-08-17T02:59:50;55.5;;;53.4;;
15500;SDS011;7852;52.228;5.990;2023-08-17T03:00:50;53.7;;;51.5;;
15500;SDS011;7852;52.228;5.990;2023-08-17T03:01:50;52.1;;;50.2;;
15500;SDS011;7852;52.228;5.990;2023-08-17T03:02:50;55.8;;;53.6;;
15500;SDS011;7852;52.228;5.990;2023-08-17T03:03:50;57.5;;;55.2;;
15500;SDS011;7852;52.228;5.990;2023-08-17T03:04:50;59.2;;;56.8;;
15500;SDS011;7852;52.228;5.990;2023-08-17T03:05:50;64.7;;;62;;
15500;SDS011;7852;52.228;5.990;2023-08-17T03:06:50;54.2;;;52.1;;
15500;SDS011;7852;52.228;5.990;2023-08-17T03:07:50;57.7;;;55.4;;
15500;SDS011;7852;52.228;5.990;2023-08-17T03:08:50;59.4;;;56.9;;
15500;SDS011;7852;52.228;5.990;2023-08-17T03:09:50;53.5;;;51.4;;
15500;SDS011;7852;52.228;5.990;2023-08-17T03:10:50;56;;;53.7;;
15500;SDS011;7852;52.228;5.990;2023-08-17T03:11:50;60.1;;;57.7;;
15500;SDS011;7852;52.228;5.990;2023-08-17T03:12:50;55.8;;;53.4;;
15500;SDS011;7852;52.228;5.990;2023-08-17T03:13:50;56.2;;;54;;
15500;SDS011;7852;52.228;5.990;2023-08-17T03:14:50;55.8;;;53.6;;
15500;SDS011;7852;52.228;5.990;2023-08-17T03:15:50;52.3;;;50.2;;
15500;SDS011;7852;52.228;5.990;2023-08-17T03:16:50;54.8;;;52.4;;
15500;SDS011;7852;52.228;5.990;2023-08-17T03:17:50;53.2;;;51;;
15500;SDS011;7852;52.228;5.990;2023-08-17T03:18:50;51.9;;;49.9;;
15500;SDS011;7852;52.228;5.990;2023-08-17T03:19:50;56.8;;;54.5;;
15500;SDS011;7852;52.228;5.990;2023-08-17T03:20:50;55.1;;;52.9;;
15500;SDS011;7852;52.228;5.990;2023-08-17T03:21:50;54.8;;;52.5;;
15500;SDS011;7852;52.228;5.990;2023-08-17T03:22:50;55.8;;;53.6;;
15500;SDS011;7852;52.228;5.990;2023-08-17T03:23:50;56.9;;;54.8;;
15500;SDS011;7852;52.228;5.990;2023-08-17T03:24:50;55.1;;;52.9;;
15500;SDS011;7852;52.228;5.990;2023-08-17T03:25:51;59.3;;;57;;
15500;SDS011;7852;52.228;5.990;2023-08-17T03:26:50;58.3;;;56;;
15500;SDS011;7852;52.228;5.990;2023-08-17T03:27:50;60.1;;;57.6;;
15500;SDS011;7852;52.228;5.990;2023-08-17T03:28:50;61.4;;;58.9;;
15500;SDS011;7852;52.228;5.990;2023-08-17T03:29:50;62.4;;;60.1;;
15500;SDS011;7852;52.228;5.990;2023-08-17T03:30:50;57.4;;;54.9;;
15500;SDS011;7852;52.228;5.990;2023-08-17T03:31:50;52.1;;;49.9;;
15500;SDS011;7852;52.228;5.990;2023-08-17T03:32:50;63.1;;;60.3;;
15500;SDS011;7852;52.228;5.990;2023-08-17T03:33:50;61.9;;;59.5;;
15500;SDS011;7852;52.228;5.990;2023-08-17T03:34:50;60.9;;;58.6;;
15500;SDS011;7852;52.228;5.990;2023-08-17T03:35:50;61.8;;;59.5;;
15500;SDS011;7852;52.228;5.990;2023-08-17T03:36:50;61.1;;;58.8;;
15500;SDS011;7852;52.228;5.990;2023-08-17T03:37:50;55.4;;;53.1;;
15500;SDS011;7852;52.228;5.990;2023-08-17T03:38:50;63.4;;;60.9;;
15500;SDS011;7852;52.228;5.990;2023-08-17T03:39:50;59.8;;;57.5;;
15500;SDS011;7852;52.228;5.990;2023-08-17T03:40:50;57.3;;;55;;
15500;SDS011;7852;52.228;5.990;2023-08-17T03:41:50;57.4;;;55.2;;
15500;SDS011;7852;52.228;5.990;2023-08-17T03:42:50;58.6;;;56.3;;
15500;SDS011;7852;52.228;5.990;2023-08-17T03:43:50;60.2;;;57.8;;
15500;SDS011;7852;52.228;5.990;2023-08-17T03:44:50;57.4;;;55.2;;
15500;SDS011;7852;52.228;5.990;2023-08-17T03:45:50;58.9;;;56.6;;
15500;SDS011;7852;52.228;5.990;2023-08-17T03:46:50;56.2;;;54.1;;
15500;SDS011;7852;52.228;5.990;2023-08-17T03:47:50;59.6;;;57.3;;
15500;SDS011;7852;52.228;5.990;2023-08-17T03:48:50;59.1;;;56.7;;
15500;SDS011;7852;52.228;5.990;2023-08-17T03:49:51;61;;;58.5;;
15500;SDS011;7852;52.228;5.990;2023-08-17T03:50:50;62.2;;;59.9;;
15500;SDS011;7852;52.228;5.990;2023-08-17T03:51:50;58.3;;;56.1;;
15500;SDS011;7852;52.228;5.990;2023-08-17T03:52:50;57.7;;;55.3;;
15500;SDS011;7852;52.228;5.990;2023-08-17T03:53:50;57.1;;;54.8;;
15500;SDS011;7852;52.228;5.990;2023-08-17T03:54:50;53.4;;;51.2;;
15500;SDS011;7852;52.228;5.990;2023-08-17T03:55:50;56.9;;;54.6;;
15500;SDS011;7852;52.228;5.990;2023-08-17T03:56:50;56.9;;;54.8;;
15500;SDS011;7852;52.228;5.990;2023-08-17T03:57:50;59.6;;;57.2;;
15500;SDS011;7852;52.228;5.990;2023-08-17T03:58:50;60.1;;;57.7;;
15500;SDS011;7852;52.228;5.990;2023-08-17T03:59:50;55.7;;;53.3;;
15500;SDS011;7852;52.228;5.990;2023-08-17T04:00:50;63.4;;;60.9;;
15500;SDS011;7852;52.228;5.990;2023-08-17T04:01:50;57.7;;;55.5;;
15500;SDS011;7852;52.228;5.990;2023-08-17T04:02:50;60.8;;;58.4;;
15500;SDS011;7852;52.228;5.990;2023-08-17T04:03:50;59.3;;;56.9;;
15500;SDS011;7852;52.228;5.990;2023-08-17T04:04:50;55.3;;;53.1;;
15500;SDS011;7852;52.228;5.990;2023-08-17T04:05:50;60.6;;;58.3;;
15500;SDS011;7852;52.228;5.990;2023-08-17T04:06:50;56.3;;;54.2;;
15500;SDS011;7852;52.228;5.990;2023-08-17T04:07:50;53.4;;;51.3;;
15500;SDS011;7852;52.228;5.990;2023-08-17T04:08:50;53.6;;;51.2;;
15500;SDS011;7852;52.228;5.990;2023-08-17T04:09:50;53.5;;;51.3;;
15500;SDS011;7852;52.228;5.990;2023-08-17T04:10:50;55.1;;;53.1;;
15500;SDS011;7852;52.228;5.990;2023-08-17T04:11:50;55.5;;;53.2;;
15500;SDS011;7852;52.228;5.990;2023-08-17T04:12:50;55.1;;;53;;
15500;SDS011;7852;52.228;5.990;2023-08-17T04:13:50;57.5;;;55;;
15500;SDS011;7852;52.228;5.990;2023-08-17T04:14:50;54.7;;;52.3;;
15500;SDS011;7852;52.228;5.990;2023-08-17T04:15:50;51.1;;;49;;
15500;SDS011;7852;52.228;5.990;2023-08-17T04:16:50;51.4;;;49.3;;
15500;SDS011;7852;52.228;5.990;2023-08-17T04:17:50;45.9;;;44.2;;
15500;SDS011;7852;52.228;5.990;2023-08-17T04:18:50;49.2;;;47.1;;
15500;SDS011;7852;52.228;5.990;2023-08-17T04:19:50;50.6;;;48.4;;
15500;SDS011;7852;52.228;5.990;2023-08-17T04:20:50;47.8;;;45.9;;
15500;SDS011;7852;52.228;5.990;2023-08-17T04:21:50;51.2;;;49.2;;
15500;SDS011;7852;52.228;5.990;2023-08-17T04:22:50;49.2;;;47.4;;
15500;SDS011;7852;52.228;5.990;2023-08-17T04:23:50;50.3;;;48.4;;
15500;SDS011;7852;52.228;5.990;2023-08-17T04:24:50;52.6;;;50.5;;
15500;SDS011;7852;52.228;5.990;2023-08-17T04:25:50;55.5;;;53.1;;
15500;SDS011;7852;52.228;5.990;2023-08-17T04:26:50;54.1;;;52;;
15500;SDS011;7852;52.228;5.990;2023-08-17T04:27:50;51.2;;;48.9;;
15500;SDS011;7852;52.228;5.990;2023-08-17T04:28:50;56.3;;;54.1;;
15500;SDS011;7852;52.228;5.990;2023-08-17T04:29:50;59.1;;;56.6;;
15500;SDS011;7852;52.228;5.990;2023-08-17T04:30:50;58.1;;;55.7;;
15500;SDS011;7852;52.228;5.990;2023-08-17T04:31:50;55.7;;;53.3;;
15500;SDS011;7852;52.228;5.990;2023-08-17T04:32:50;58.6;;;56.3;;
15500;SDS011;7852;52.228;5.990;2023-08-17T04:33:50;57.7;;;55.6;;
15500;SDS011;7852;52.228;5.990;2023-08-17T04:34:50;58.2;;;56;;
15500;SDS011;7852;52.228;5.990;2023-08-17T04:35:50;59;;;56.7;;
15500;SDS011;7852;52.228;5.990;2023-08-17T04:36:50;56.8;;;54.6;;
15500;SDS011;7852;52.228;5.990;2023-08-17T04:37:50;56.6;;;54.4;;
15500;SDS011;7852;52.228;5.990;2023-08-17T04:38:50;57.5;;;55.2;;
15500;SDS011;7852;52.228;5.990;2023-08-17T04:39:50;58.9;;;56.7;;
15500;SDS011;7852;52.228;5.990;2023-08-17T04:40:50;54.2;;;52.1;;
15500;SDS011;7852;52.228;5.990;2023-08-17T04:41:50;60.2;;;57.9;;
15500;SDS011;7852;52.228;5.990;2023-08-17T04:42:50;59.6;;;57.1;;
15500;SDS011;7852;52.228;5.990;2023-08-17T04:43:50;66.5;;;63.9;;
15500;SDS011;7852;52.228;5.990;2023-08-17T04:44:50;63.3;;;60.5;;
15500;SDS011;7852;52.228;5.990;2023-08-17T04:45:50;62.3;;;60;;
15500;SDS011;7852;52.228;5.990;2023-08-17T04:46:50;61.1;;;58.8;;
15500;SDS011;7852;52.228;5.990;2023-08-17T04:47:50;63.6;;;61.1;;
15500;SDS011;7852;52.228;5.990;2023-08-17T04:48:50;61;;;58.6;;
15500;SDS011;7852;52.228;5.990;2023-08-17T04:49:50;60.1;;;57.8;;
15500;SDS011;7852;52.228;5.990;2023-08-17T04:50:50;56.8;;;54.5;;
15500;SDS011;7852;52.228;5.990;2023-08-17T04:51:50;61.5;;;59;;
15500;SDS011;7852;52.228;5.990;2023-08-17T04:52:50;56.7;;;54.2;;
15500;SDS011;7852;52.228;5.990;2023-08-17T04:53:50;60.1;;;57.7;;
15500;SDS011;7852;52.228;5.990;2023-08-17T04:54:50;60.2;;;57.8;;
15500;SDS011;7852;52.228;5.990;2023-08-17T04:55:50;59;;;56.4;;
15500;SDS011;7852;52.228;5.990;2023-08-17T04:56:50;62;;;59.7;;
15500;SDS011;7852;52.228;5.990;2023-08-17T04:57:50;53.4;;;51;;
15500;SDS011;7852;52.228;5.990;2023-08-17T04:58:50;55.2;;;53;;
15500;SDS011;7852;52.228;5.990;2023-08-17T04:59:50;49.9;;;47.8;;
15500;SDS011;7852;52.228;5.990;2023-08-17T05:00:50;54.4;;;51.8;;
15500;SDS011;7852;52.228;5.990;2023-08-17T05:01:50;48.5;;;46.6;;
15500;SDS011;7852;52.228;5.990;2023-08-17T05:02:50;53.3;;;51.1;;
15500;SDS011;7852;52.228;5.990;2023-08-17T05:03:50;48.4;;;46.2;;
15500;SDS011;7852;52.228;5.990;2023-08-17T05:04:50;46.2;;;44.1;;
15500;SDS011;7852;52.228;5.990;2023-08-17T05:05:51;42.4;;;40.6;;
15500;SDS011;7852;52.228;5.990;2023-08-17T05:06:50;34.9;;;33.6;;
15500;SDS011;7852;52.228;5.990;2023-08-17T05:08:52;28.1;;;26.7;;
15500;SDS011;7852;52.228;5.990;2023-08-17T05:09:52;27.5;;;26.2;;
15500;SDS011;7852;52.228;5.990;2023-08-17T05:10:52;27.3;;;26.1;;
15500;SDS011;7852;52.228;5.990;2023-08-17T05:11:52;29.7;;;28.3;;
15500;SDS011;7852;52.228;5.990;2023-08-17T05:12:52;29.1;;;27.8;;
15500;SDS011;7852;52.228;5.990;2023-08-17T05:13:52;28.2;;;27;;
15500;SDS011;7852;52.228;5.990;2023-08-17T05:14:52;25.5;;;24.2;;
15500;SDS011;7852;52.228;5.990;2023-08-17T05:15:52;30.1;;;28.7;;
15500;SDS011;7852;52.228;5.990;2023-08-17T05:16:52;32.5;;;30.9;;
15500;SDS011;7852;52.228;5.990;2023-08-17T05:17:52;31.8;;;30.4;;
15500;SDS011;7852;52.228;5.990;2023-08-17T05:18:52;26.3;;;24.9;;
15500;SDS011;7852;52.228;5.990;2023-08-17T05:19:52;21.5;;;20.2;;
15500;SDS011;7852;52.228;5.990;2023-08-17T05:20:52;22.9;;;21.9;;
15500;SDS011;7852;52.228;5.990;2023-08-17T05:21:52;23.2;;;22.2;;
15500;SDS011;7852;52.228;5.990;2023-08-17T05:22:52;22.2;;;20.7;;
15500;SDS011;7852;52.228;5.990;2023-08-17T05:23:52;26.7;;;25.4;;
15500;SDS011;7852;52.228;5.990;2023-08-17T05:24:53;23.7;;;22.6;;
15500;SDS011;7852;52.228;5.990;2023-08-17T05:25:53;23.2;;;22.1;;
15500;SDS011;7852;52.228;5.990;2023-08-17T05:26:53;22.4;;;21.4;;
15500;SDS011;7852;52.228;5.990;2023-08-17T05:27:53;21.8;;;20.8;;
15500;SDS011;7852;52.228;5.990;2023-08-17T05:28:53;22.2;;;21;;
15500;SDS011;7852;52.228;5.990;2023-08-17T05:29:53;25.1;;;24;;
15500;SDS011;7852;52.228;5.990;2023-08-17T05:30:53;27.6;;;26.4;;
15500;SDS011;7852;52.228;5.990;2023-08-17T05:31:53;24.5;;;23;;
15500;SDS011;7852;52.228;5.990;2023-08-17T05:32:53;21.2;;;19.9;;
15500;SDS011;7852;52.228;5.990;2023-08-17T05:33:53;19.6;;;18.5;;
15500;SDS011;7852;52.228;5.990;2023-08-17T05:34:53;23.2;;;22;;
15500;SDS011;7852;52.228;5.990;2023-08-17T05:35:53;19.6;;;18.5;;
15500;SDS011;7852;52.228;5.990;2023-08-17T05:36:53;20.5;;;19.2;;
15500;SDS011;7852;52.228;5.990;2023-08-17T05:37:53;20.2;;;19.2;;
15500;SDS011;7852;52.228;5.990;2023-08-17T05:38:53;23.9;;;22.7;;
15500;SDS011;7852;52.228;5.990;2023-08-17T05:39:53;18.7;;;17.7;;
15500;SDS011;7852;52.228;5.990;2023-08-17T05:40:55;18.5;;;17.4;;
15500;SDS011;7852;52.228;5.990;2023-08-17T05:41:53;19.6;;;18.5;;
15500;SDS011;7852;52.228;5.990;2023-08-17T05:42:53;21.2;;;19.8;;
15500;SDS011;7852;52.228;5.990;2023-08-17T05:43:53;20;;;18.8;;
15500;SDS011;7852;52.228;5.990;2023-08-17T05:44:53;21.9;;;20.8;;
15500;SDS011;7852;52.228;5.990;2023-08-17T05:45:53;17.3;;;16.3;;
15500;SDS011;7852;52.228;5.990;2023-08-17T05:46:53;16.4;;;15.6;;
15500;SDS011;7852;52.228;5.990;2023-08-17T05:47:53;17.4;;;16.3;;
15500;SDS011;7852;52.228;5.990;2023-08-17T05:48:53;18.2;;;17.2;;
15500;SDS011;7852;52.228;5.990;2023-08-17T05:49:53;18.6;;;17.6;;
15500;SDS011;7852;52.228;5.990;2023-08-17T05:50:54;18.4;;;17.3;;
15500;SDS011;7852;52.228;5.990;2023-08-17T05:51:53;18.6;;;17.4;;
15500;SDS011;7852;52.228;5.990;2023-08-17T05:52:53;20.2;;;19.1;;
15500;SDS011;7852;52.228;5.990;2023-08-17T05:53:53;17.3;;;16.2;;
15500;SDS011;7852;52.228;5.990;2023-08-17T05:54:53;21.3;;;20;;
15500;SDS011;7852;52.228;5.990;2023-08-17T05:56:53;17.8;;;16.8;;
15500;SDS011;7852;52.228;5.990;2023-08-17T05:57:53;15.8;;;14.7;;
15500;SDS011;7852;52.228;5.990;2023-08-17T05:58:53;16.7;;;15.8;;
15500;SDS011;7852;52.228;5.990;2023-08-17T05:59:53;17.7;;;16.5;;
15500;SDS011;7852;52.228;5.990;2023-08-17T06:00:53;18;;;16.8;;
15500;SDS011;7852;52.228;5.990;2023-08-17T06:01:53;16.9;;;15.9;;
15500;SDS011;7852;52.228;5.990;2023-08-17T06:02:53;18.6;;;17.3;;
15500;SDS011;7852;52.228;5.990;2023-08-17T06:03:53;20.5;;;19.3;;
15500;SDS011;7852;52.228;5.990;2023-08-17T06:04:53;19.6;;;18.5;;
15500;SDS011;7852;52.228;5.990;2023-08-17T06:05:53;24.8;;;23.2;;
15500;SDS011;7852;52.228;5.990;2023-08-17T06:06:53;21.7;;;20.5;;
15500;SDS011;7852;52.228;5.990;2023-08-17T06:07:53;22.1;;;20.7;;
15500;SDS011;7852;52.228;5.990;2023-08-17T06:08:53;27;;;25.6;;
15500;SDS011;7852;52.228;5.990;2023-08-17T06:09:53;26.4;;;25;;
15500;SDS011;7852;52.228;5.990;2023-08-17T06:10:53;28.6;;;27.3;;
15500;SDS011;7852;52.228;5.990;2023-08-17T06:11:53;43.4;;;41.4;;
15500;SDS011;7852;52.228;5.990;2023-08-17T06:12:53;41.4;;;39.2;;
15500;SDS011;7852;52.228;5.990;2023-08-17T06:13:53;36.9;;;35.1;;